sensor_id;sensor_type;location;lat;lon;timestamp;P1;durP1;ratioP1;P2;durP2;ratioP2
10637;SDS011;47007;49.252;8.904;2022-07-30T00:00:10;2.63;;;2.42;;
10637;SDS011;47007;49.252;8.904;2022-07-30T00:02:50;3.50;;;3.20;;
10637;SDS011;47007;49.252;8.904;2022-07-30T00:05:16;2.85;;;2.65;;
10637;SDS011;47007;49.252;8.904;2022-07-30T00:07:43;3.42;;;3.13;;
10637;SDS011;47007;49.252;8.904;2022-07-30T00:10:10;4.10;;;3.65;;
10637;SDS011;47007;49.252;8.904;2022-07-30T00:12:36;3.40;;;3.10;;
10637;SDS011;47007;49.252;8.904;2022-07-30T00:15:03;3.20;;;2.90;;
10637;SDS011;47007;49.252;8.904;2022-07-30T00:17:30;3.05;;;2.85;;
10637;SDS011;47007;49.252;8.904;2022-07-30T00:19:57;2.63;;;2.28;;
10637;SDS011;47007;49.252;8.904;2022-07-30T00:22:24;4.07;;;3.58;;
10637;SDS011;47007;49.252;8.904;2022-07-30T00:24:51;3.80;;;3.50;;
10637;SDS011;47007;49.252;8.904;2022-07-30T00:27:17;3.88;;;3.58;;
10637;SDS011;47007;49.252;8.904;2022-07-30T00:29:44;3.60;;;3.33;;
10637;SDS011;47007;49.252;8.904;2022-07-30T00:32:11;3.92;;;3.55;;
10637;SDS011;47007;49.252;8.904;2022-07-30T00:34:38;3.20;;;3.00;;
10637;SDS011;47007;49.252;8.904;2022-07-30T00:37:05;3.50;;;3.20;;
10637;SDS011;47007;49.252;8.904;2022-07-30T00:39:31;2.97;;;2.72;;
10637;SDS011;47007;49.252;8.904;2022-07-30T00:41:59;3.17;;;2.97;;
10637;SDS011;47007;49.252;8.904;2022-07-30T00:44:28;3.80;;;3.40;;
10637;SDS011;47007;49.252;8.904;2022-07-30T00:46:56;3.50;;;3.30;;
10637;SDS011;47007;49.252;8.904;2022-07-30T00:49:23;3.22;;;2.97;;
10637;SDS011;47007;49.252;8.904;2022-07-30T00:51:50;3.47;;;3.17;;
10637;SDS011;47007;49.252;8.904;2022-07-30T00:54:17;3.30;;;3.10;;
10637;SDS011;47007;49.252;8.904;2022-07-30T00:56:45;3.75;;;3.45;;
10637;SDS011;47007;49.252;8.904;2022-07-30T00:59:13;3.28;;;2.97;;
10637;SDS011;47007;49.252;8.904;2022-07-30T01:01:40;3.20;;;2.97;;
10637;SDS011;47007;49.252;8.904;2022-07-30T01:04:09;3.45;;;2.95;;
10637;SDS011;47007;49.252;8.904;2022-07-30T01:06:39;3.17;;;2.97;;
10637;SDS011;47007;49.252;8.904;2022-07-30T01:09:06;2.40;;;2.30;;
10637;SDS011;47007;49.252;8.904;2022-07-30T01:11:37;2.55;;;2.42;;
10637;SDS011;47007;49.252;8.904;2022-07-30T01:14:05;2.80;;;2.60;;
10637;SDS011;47007;49.252;8.904;2022-07-30T01:16:34;3.50;;;3.20;;
10637;SDS011;47007;49.252;8.904;2022-07-30T01:19:04;3.00;;;2.80;;
10637;SDS011;47007;49.252;8.904;2022-07-30T01:24:46;3.78;;;2.78;;
10637;SDS011;47007;49.252;8.904;2022-07-30T01:27:22;2.97;;;2.78;;
10637;SDS011;47007;49.252;8.904;2022-07-30T01:29:51;2.35;;;2.25;;
10637;SDS011;47007;49.252;8.904;2022-07-30T01:32:20;2.55;;;2.45;;
10637;SDS011;47007;49.252;8.904;2022-07-30T01:34:51;2.88;;;2.63;;
10637;SDS011;47007;49.252;8.904;2022-07-30T01:37:20;2.80;;;2.60;;
10637;SDS011;47007;49.252;8.904;2022-07-30T01:39:48;2.65;;;2.55;;
10637;SDS011;47007;49.252;8.904;2022-07-30T01:42:17;5.53;;;3.20;;
10637;SDS011;47007;49.252;8.904;2022-07-30T01:44:47;3.17;;;2.97;;
10637;SDS011;47007;49.252;8.904;2022-07-30T01:47:15;3.30;;;3.10;;
10637;SDS011;47007;49.252;8.904;2022-07-30T01:49:44;3.92;;;3.63;;
10637;SDS011;47007;49.252;8.904;2022-07-30T01:52:14;4.60;;;4.20;;
10637;SDS011;47007;49.252;8.904;2022-07-30T01:54:43;3.25;;;3.03;;
10637;SDS011;47007;49.252;8.904;2022-07-30T01:57:12;3.50;;;3.20;;
10637;SDS011;47007;49.252;8.904;2022-07-30T01:59:41;3.05;;;2.78;;
10637;SDS011;47007;49.252;8.904;2022-07-30T02:02:11;3.10;;;2.90;;
10637;SDS011;47007;49.252;8.904;2022-07-30T02:04:43;3.60;;;3.40;;
10637;SDS011;47007;49.252;8.904;2022-07-30T02:07:15;3.55;;;3.35;;
10637;SDS011;47007;49.252;8.904;2022-07-30T02:09:57;3.60;;;3.40;;
10637;SDS011;47007;49.252;8.904;2022-07-30T02:12:34;3.60;;;3.40;;
10637;SDS011;47007;49.252;8.904;2022-07-30T02:20:59;3.70;;;3.50;;
10637;SDS011;47007;49.252;8.904;2022-07-30T02:23:43;4.70;;;4.30;;
10637;SDS011;47007;49.252;8.904;2022-07-30T02:26:12;4.45;;;4.15;;
10637;SDS011;47007;49.252;8.904;2022-07-30T02:28:44;4.38;;;4.07;;
10637;SDS011;47007;49.252;8.904;2022-07-30T02:31:13;4.53;;;4.22;;
10637;SDS011;47007;49.252;8.904;2022-07-30T02:33:45;4.88;;;4.57;;
10637;SDS011;47007;49.252;8.904;2022-07-30T02:36:16;5.95;;;5.05;;
10637;SDS011;47007;49.252;8.904;2022-07-30T02:38:46;4.30;;;4.07;;
10637;SDS011;47007;49.252;8.904;2022-07-30T02:41:21;4.75;;;4.45;;
10637;SDS011;47007;49.252;8.904;2022-07-30T02:43:52;5.18;;;4.88;;
10637;SDS011;47007;49.252;8.904;2022-07-30T02:46:21;4.72;;;4.32;;
10637;SDS011;47007;49.252;8.904;2022-07-30T02:49:28;4.47;;;4.18;;
10637;SDS011;47007;49.252;8.904;2022-07-30T02:51:57;4.28;;;3.97;;
10637;SDS011;47007;49.252;8.904;2022-07-30T02:54:25;4.50;;;4.13;;
10637;SDS011;47007;49.252;8.904;2022-07-30T02:56:57;4.75;;;4.45;;
10637;SDS011;47007;49.252;8.904;2022-07-30T02:59:26;5.07;;;4.70;;
10637;SDS011;47007;49.252;8.904;2022-07-30T03:01:55;5.38;;;4.85;;
10637;SDS011;47007;49.252;8.904;2022-07-30T03:04:24;5.25;;;4.95;;
10637;SDS011;47007;49.252;8.904;2022-07-30T03:06:52;5.85;;;5.43;;
10637;SDS011;47007;49.252;8.904;2022-07-30T03:09:20;5.70;;;5.30;;
10637;SDS011;47007;49.252;8.904;2022-07-30T03:11:50;4.95;;;4.60;;
10637;SDS011;47007;49.252;8.904;2022-07-30T03:14:19;5.75;;;5.30;;
10637;SDS011;47007;49.252;8.904;2022-07-30T03:16:46;5.70;;;5.30;;
10637;SDS011;47007;49.252;8.904;2022-07-30T03:19:24;5.53;;;5.13;;
10637;SDS011;47007;49.252;8.904;2022-07-30T03:21:56;5.38;;;4.90;;
10637;SDS011;47007;49.252;8.904;2022-07-30T03:24:25;7.20;;;6.50;;
10637;SDS011;47007;49.252;8.904;2022-07-30T03:26:53;6.00;;;5.50;;
10637;SDS011;47007;49.252;8.904;2022-07-30T03:29:23;6.10;;;5.60;;
10637;SDS011;47007;49.252;8.904;2022-07-30T03:31:52;6.90;;;6.35;;
10637;SDS011;47007;49.252;8.904;2022-07-30T03:34:19;7.18;;;6.47;;
10637;SDS011;47007;49.252;8.904;2022-07-30T03:36:47;5.80;;;5.30;;
10637;SDS011;47007;49.252;8.904;2022-07-30T03:39:15;6.00;;;5.50;;
10637;SDS011;47007;49.252;8.904;2022-07-30T03:41:44;5.57;;;5.18;;
10637;SDS011;47007;49.252;8.904;2022-07-30T03:44:14;6.45;;;5.90;;
10637;SDS011;47007;49.252;8.904;2022-07-30T03:46:41;6.20;;;5.43;;
10637;SDS011;47007;49.252;8.904;2022-07-30T03:49:09;5.90;;;5.47;;
10637;SDS011;47007;49.252;8.904;2022-07-30T03:51:41;5.63;;;5.22;;
10637;SDS011;47007;49.252;8.904;2022-07-30T03:54:09;6.15;;;5.75;;
10637;SDS011;47007;49.252;8.904;2022-07-30T03:56:45;5.82;;;5.32;;
10637;SDS011;47007;49.252;8.904;2022-07-30T03:59:47;5.55;;;5.13;;
10637;SDS011;47007;49.252;8.904;2022-07-30T04:02:17;6.40;;;5.90;;
10637;SDS011;47007;49.252;8.904;2022-07-30T04:04:53;6.88;;;6.38;;
10637;SDS011;47007;49.252;8.904;2022-07-30T04:07:21;8.15;;;7.45;;
10637;SDS011;47007;49.252;8.904;2022-07-30T04:09:48;7.40;;;6.80;;
10637;SDS011;47007;49.252;8.904;2022-07-30T04:12:29;7.53;;;6.93;;
10637;SDS011;47007;49.252;8.904;2022-07-30T04:14:56;7.47;;;6.80;;
10637;SDS011;47007;49.252;8.904;2022-07-30T04:17:26;7.38;;;6.68;;
10637;SDS011;47007;49.252;8.904;2022-07-30T04:20:06;7.65;;;6.95;;
10637;SDS011;47007;49.252;8.904;2022-07-30T04:22:43;7.72;;;7.03;;
10637;SDS011;47007;49.252;8.904;2022-07-30T04:25:11;7.63;;;6.97;;
10637;SDS011;47007;49.252;8.904;2022-07-30T04:27:50;8.25;;;7.47;;
10637;SDS011;47007;49.252;8.904;2022-07-30T04:30:30;7.82;;;7.03;;
10637;SDS011;47007;49.252;8.904;2022-07-30T04:33:00;7.30;;;6.45;;
10637;SDS011;47007;49.252;8.904;2022-07-30T04:35:46;7.32;;;6.63;;
10637;SDS011;47007;49.252;8.904;2022-07-30T04:38:22;7.10;;;6.47;;
10637;SDS011;47007;49.252;8.904;2022-07-30T04:41:08;8.60;;;7.70;;
10637;SDS011;47007;49.252;8.904;2022-07-30T04:43:54;7.30;;;6.70;;
10637;SDS011;47007;49.252;8.904;2022-07-30T04:46:20;7.95;;;7.25;;
10637;SDS011;47007;49.252;8.904;2022-07-30T04:48:50;7.88;;;7.07;;
10637;SDS011;47007;49.252;8.904;2022-07-30T04:51:25;7.57;;;6.97;;
10637;SDS011;47007;49.252;8.904;2022-07-30T04:53:55;7.72;;;6.97;;
10637;SDS011;47007;49.252;8.904;2022-07-30T04:56:24;7.65;;;7.05;;
10637;SDS011;47007;49.252;8.904;2022-07-30T04:58:56;7.03;;;6.43;;
10637;SDS011;47007;49.252;8.904;2022-07-30T05:01:26;6.95;;;6.40;;
10637;SDS011;47007;49.252;8.904;2022-07-30T05:04:07;7.13;;;6.63;;
10637;SDS011;47007;49.252;8.904;2022-07-30T05:06:36;7.78;;;6.68;;
10637;SDS011;47007;49.252;8.904;2022-07-30T05:09:03;6.78;;;6.18;;
10637;SDS011;47007;49.252;8.904;2022-07-30T05:11:31;6.93;;;6.40;;
10637;SDS011;47007;49.252;8.904;2022-07-30T05:13:59;7.20;;;6.50;;
10637;SDS011;47007;49.252;8.904;2022-07-30T05:16:25;6.47;;;5.97;;
10637;SDS011;47007;49.252;8.904;2022-07-30T05:18:54;6.95;;;5.72;;
10637;SDS011;47007;49.252;8.904;2022-07-30T05:21:21;6.80;;;6.20;;
10637;SDS011;47007;49.252;8.904;2022-07-30T05:23:48;6.22;;;5.70;;
10637;SDS011;47007;49.252;8.904;2022-07-30T05:26:34;6.30;;;5.72;;
10637;SDS011;47007;49.252;8.904;2022-07-30T05:29:01;8.00;;;6.45;;
10637;SDS011;47007;49.252;8.904;2022-07-30T05:31:45;6.72;;;6.13;;
10637;SDS011;47007;49.252;8.904;2022-07-30T05:34:12;5.75;;;5.22;;
10637;SDS011;47007;49.252;8.904;2022-07-30T05:36:42;6.43;;;5.93;;
10637;SDS011;47007;49.252;8.904;2022-07-30T05:39:12;6.20;;;5.20;;
10637;SDS011;47007;49.252;8.904;2022-07-30T05:41:51;5.00;;;4.50;;
10637;SDS011;47007;49.252;8.904;2022-07-30T05:44:25;5.40;;;4.90;;
10637;SDS011;47007;49.252;8.904;2022-07-30T05:46:51;4.95;;;4.55;;
10637;SDS011;47007;49.252;8.904;2022-07-30T05:49:18;4.82;;;4.43;;
10637;SDS011;47007;49.252;8.904;2022-07-30T05:51:45;4.93;;;4.53;;
10637;SDS011;47007;49.252;8.904;2022-07-30T05:54:12;5.75;;;5.18;;
10637;SDS011;47007;49.252;8.904;2022-07-30T05:57:14;4.85;;;4.45;;
10637;SDS011;47007;49.252;8.904;2022-07-30T05:59:41;5.05;;;4.53;;
10637;SDS011;47007;49.252;8.904;2022-07-30T06:02:17;4.60;;;4.22;;
10637;SDS011;47007;49.252;8.904;2022-07-30T06:05:01;5.13;;;4.63;;
10637;SDS011;47007;49.252;8.904;2022-07-30T06:07:29;4.95;;;4.53;;
10637;SDS011;47007;49.252;8.904;2022-07-30T06:09:58;5.47;;;4.97;;
10637;SDS011;47007;49.252;8.904;2022-07-30T06:12:27;5.38;;;4.97;;
10637;SDS011;47007;49.252;8.904;2022-07-30T06:14:55;5.93;;;5.40;;
10637;SDS011;47007;49.252;8.904;2022-07-30T06:17:27;5.22;;;4.78;;
10637;SDS011;47007;49.252;8.904;2022-07-30T06:20:12;4.93;;;4.53;;
10637;SDS011;47007;49.252;8.904;2022-07-30T06:23:06;5.03;;;4.38;;
10637;SDS011;47007;49.252;8.904;2022-07-30T06:25:51;4.40;;;4.00;;
10637;SDS011;47007;49.252;8.904;2022-07-30T06:28:18;5.68;;;4.72;;
10637;SDS011;47007;49.252;8.904;2022-07-30T06:31:10;5.15;;;4.75;;
10637;SDS011;47007;49.252;8.904;2022-07-30T06:33:37;5.30;;;4.60;;
10637;SDS011;47007;49.252;8.904;2022-07-30T06:36:04;5.05;;;4.50;;
10637;SDS011;47007;49.252;8.904;2022-07-30T06:38:40;4.68;;;4.28;;
10637;SDS011;47007;49.252;8.904;2022-07-30T06:41:11;5.13;;;4.63;;
10637;SDS011;47007;49.252;8.904;2022-07-30T06:43:49;4.70;;;4.28;;
10637;SDS011;47007;49.252;8.904;2022-07-30T06:46:51;5.68;;;4.18;;
10637;SDS011;47007;49.252;8.904;2022-07-30T06:49:21;5.65;;;4.38;;
10637;SDS011;47007;49.252;8.904;2022-07-30T06:51:48;4.90;;;4.40;;
10637;SDS011;47007;49.252;8.904;2022-07-30T06:54:15;6.25;;;4.70;;
10637;SDS011;47007;49.252;8.904;2022-07-30T06:57:01;4.60;;;4.20;;
10637;SDS011;47007;49.252;8.904;2022-07-30T06:59:28;4.40;;;4.00;;
10637;SDS011;47007;49.252;8.904;2022-07-30T07:02:11;5.90;;;4.18;;
10637;SDS011;47007;49.252;8.904;2022-07-30T07:05:01;4.45;;;4.05;;
10637;SDS011;47007;49.252;8.904;2022-07-30T07:07:29;5.72;;;3.92;;
10637;SDS011;47007;49.252;8.904;2022-07-30T07:10:08;4.43;;;4.00;;
10637;SDS011;47007;49.252;8.904;2022-07-30T07:12:48;4.60;;;4.15;;
10637;SDS011;47007;49.252;8.904;2022-07-30T07:15:17;6.47;;;4.35;;
10637;SDS011;47007;49.252;8.904;2022-07-30T07:17:47;6.13;;;4.35;;
10637;SDS011;47007;49.252;8.904;2022-07-30T07:20:35;6.63;;;3.70;;
10637;SDS011;47007;49.252;8.904;2022-07-30T07:23:04;6.10;;;4.25;;
10637;SDS011;47007;49.252;8.904;2022-07-30T07:25:34;5.20;;;4.10;;
10637;SDS011;47007;49.252;8.904;2022-07-30T07:28:01;9.98;;;4.53;;
10637;SDS011;47007;49.252;8.904;2022-07-30T07:30:39;4.63;;;3.92;;
10637;SDS011;47007;49.252;8.904;2022-07-30T07:33:07;4.38;;;3.70;;
10637;SDS011;47007;49.252;8.904;2022-07-30T07:35:54;4.25;;;3.10;;
10637;SDS011;47007;49.252;8.904;2022-07-30T07:38:26;4.28;;;3.88;;
10637;SDS011;47007;49.252;8.904;2022-07-30T07:40:54;3.63;;;3.33;;
10637;SDS011;47007;49.252;8.904;2022-07-30T07:43:21;3.88;;;3.50;;
10637;SDS011;47007;49.252;8.904;2022-07-30T07:45:48;3.90;;;3.50;;
10637;SDS011;47007;49.252;8.904;2022-07-30T07:48:15;4.10;;;3.70;;
10637;SDS011;47007;49.252;8.904;2022-07-30T07:50:51;4.05;;;3.47;;
10637;SDS011;47007;49.252;8.904;2022-07-30T07:53:25;5.38;;;4.00;;
10637;SDS011;47007;49.252;8.904;2022-07-30T07:55:52;5.57;;;3.60;;
10637;SDS011;47007;49.252;8.904;2022-07-30T07:58:21;4.38;;;3.47;;
10637;SDS011;47007;49.252;8.904;2022-07-30T08:00:52;4.50;;;4.13;;
10637;SDS011;47007;49.252;8.904;2022-07-30T08:03:23;5.88;;;3.95;;
10637;SDS011;47007;49.252;8.904;2022-07-30T08:05:51;6.03;;;4.80;;
10637;SDS011;47007;49.252;8.904;2022-07-30T08:09:06;6.90;;;4.10;;
10637;SDS011;47007;49.252;8.904;2022-07-30T08:12:02;4.05;;;3.70;;
10637;SDS011;47007;49.252;8.904;2022-07-30T08:14:48;4.47;;;3.83;;
10637;SDS011;47007;49.252;8.904;2022-07-30T08:17:47;4.93;;;4.43;;
10637;SDS011;47007;49.252;8.904;2022-07-30T08:20:20;4.90;;;4.20;;
10637;SDS011;47007;49.252;8.904;2022-07-30T08:22:48;4.95;;;4.07;;
10637;SDS011;47007;49.252;8.904;2022-07-30T08:25:15;5.18;;;4.50;;
10637;SDS011;47007;49.252;8.904;2022-07-30T08:27:48;4.43;;;4.03;;
10637;SDS011;47007;49.252;8.904;2022-07-30T08:30:15;3.85;;;3.33;;
10637;SDS011;47007;49.252;8.904;2022-07-30T08:32:41;4.47;;;4.07;;
10637;SDS011;47007;49.252;8.904;2022-07-30T08:35:08;4.28;;;3.97;;
10637;SDS011;47007;49.252;8.904;2022-07-30T08:37:35;6.25;;;4.70;;
10637;SDS011;47007;49.252;8.904;2022-07-30T08:40:03;4.45;;;3.75;;
10637;SDS011;47007;49.252;8.904;2022-07-30T08:42:31;5.93;;;4.40;;
10637;SDS011;47007;49.252;8.904;2022-07-30T08:45:00;5.90;;;4.70;;
10637;SDS011;47007;49.252;8.904;2022-07-30T08:47:30;4.28;;;3.88;;
10637;SDS011;47007;49.252;8.904;2022-07-30T08:50:15;5.72;;;3.88;;
10637;SDS011;47007;49.252;8.904;2022-07-30T08:53:06;5.60;;;4.95;;
10637;SDS011;47007;49.252;8.904;2022-07-30T08:55:33;4.97;;;3.92;;
10637;SDS011;47007;49.252;8.904;2022-07-30T08:58:00;5.90;;;4.60;;
10637;SDS011;47007;49.252;8.904;2022-07-30T09:00:28;5.72;;;4.78;;
10637;SDS011;47007;49.252;8.904;2022-07-30T09:02:56;4.53;;;4.13;;
10637;SDS011;47007;49.252;8.904;2022-07-30T09:05:24;4.70;;;4.30;;
10637;SDS011;47007;49.252;8.904;2022-07-30T09:07:57;5.18;;;4.68;;
10637;SDS011;47007;49.252;8.904;2022-07-30T09:10:24;3.47;;;3.17;;
10637;SDS011;47007;49.252;8.904;2022-07-30T09:12:52;6.47;;;3.85;;
10637;SDS011;47007;49.252;8.904;2022-07-30T09:15:37;5.00;;;3.88;;
10637;SDS011;47007;49.252;8.904;2022-07-30T09:18:05;4.55;;;3.42;;
10637;SDS011;47007;49.252;8.904;2022-07-30T09:20:34;4.65;;;3.90;;
10637;SDS011;47007;49.252;8.904;2022-07-30T09:23:14;8.60;;;3.92;;
10637;SDS011;47007;49.252;8.904;2022-07-30T09:26:01;6.70;;;3.78;;
10637;SDS011;47007;49.252;8.904;2022-07-30T09:28:46;3.60;;;3.30;;
10637;SDS011;47007;49.252;8.904;2022-07-30T09:31:14;4.60;;;3.15;;
10637;SDS011;47007;49.252;8.904;2022-07-30T09:34:00;4.95;;;3.15;;
10637;SDS011;47007;49.252;8.904;2022-07-30T09:36:45;3.88;;;3.15;;
10637;SDS011;47007;49.252;8.904;2022-07-30T09:39:28;7.65;;;4.32;;
10637;SDS011;47007;49.252;8.904;2022-07-30T09:42:23;3.20;;;2.58;;
10637;SDS011;47007;49.252;8.904;2022-07-30T09:45:07;4.20;;;3.50;;
10637;SDS011;47007;49.252;8.904;2022-07-30T09:47:43;4.95;;;3.00;;
10637;SDS011;47007;49.252;8.904;2022-07-30T09:50:14;4.53;;;3.63;;
10637;SDS011;47007;49.252;8.904;2022-07-30T09:53:04;3.95;;;3.50;;
10637;SDS011;47007;49.252;8.904;2022-07-30T09:55:34;4.22;;;2.92;;
10637;SDS011;47007;49.252;8.904;2022-07-30T09:58:08;3.78;;;3.20;;
10637;SDS011;47007;49.252;8.904;2022-07-30T10:00:39;4.00;;;2.90;;
10637;SDS011;47007;49.252;8.904;2022-07-30T10:03:24;3.28;;;2.40;;
10637;SDS011;47007;49.252;8.904;2022-07-30T10:06:45;4.40;;;2.78;;
10637;SDS011;47007;49.252;8.904;2022-07-30T10:12:03;4.18;;;2.95;;
10637;SDS011;47007;49.252;8.904;2022-07-30T10:14:36;5.88;;;3.17;;
10637;SDS011;47007;49.252;8.904;2022-07-30T10:17:18;4.75;;;3.20;;
10637;SDS011;47007;49.252;8.904;2022-07-30T10:20:08;3.58;;;2.60;;
10637;SDS011;47007;49.252;8.904;2022-07-30T10:23:09;4.07;;;3.00;;
10637;SDS011;47007;49.252;8.904;2022-07-30T10:26:13;4.70;;;2.85;;
10637;SDS011;47007;49.252;8.904;2022-07-30T10:29:01;3.67;;;2.38;;
10637;SDS011;47007;49.252;8.904;2022-07-30T10:31:28;3.10;;;2.80;;
10637;SDS011;47007;49.252;8.904;2022-07-30T10:34:16;5.97;;;2.55;;
10637;SDS011;47007;49.252;8.904;2022-07-30T10:36:50;3.42;;;2.47;;
10637;SDS011;47007;49.252;8.904;2022-07-30T10:39:33;4.07;;;2.83;;
10637;SDS011;47007;49.252;8.904;2022-07-30T10:42:09;3.35;;;1.88;;
10637;SDS011;47007;49.252;8.904;2022-07-30T10:45:06;2.97;;;2.78;;
10637;SDS011;47007;49.252;8.904;2022-07-30T10:47:45;3.85;;;2.30;;
10637;SDS011;47007;49.252;8.904;2022-07-30T10:52:54;1.77;;;1.60;;
10637;SDS011;47007;49.252;8.904;2022-07-30T10:55:23;4.22;;;2.25;;
10637;SDS011;47007;49.252;8.904;2022-07-30T10:58:10;2.60;;;2.40;;
10637;SDS011;47007;49.252;8.904;2022-07-30T11:08:50;2.65;;;1.75;;
10637;SDS011;47007;49.252;8.904;2022-07-30T11:14:09;2.53;;;2.20;;
10637;SDS011;47007;49.252;8.904;2022-07-30T11:19:09;2.63;;;1.65;;
10637;SDS011;47007;49.252;8.904;2022-07-30T11:24:53;2.15;;;1.20;;
10637;SDS011;47007;49.252;8.904;2022-07-30T11:32:53;2.50;;;1.50;;
10637;SDS011;47007;49.252;8.904;2022-07-30T11:35:23;1.42;;;1.33;;
10637;SDS011;47007;49.252;8.904;2022-07-30T11:40:28;3.33;;;1.40;;
10637;SDS011;47007;49.252;8.904;2022-07-30T11:43:19;1.70;;;1.60;;
10637;SDS011;47007;49.252;8.904;2022-07-30T11:49:03;3.28;;;1.70;;
10637;SDS011;47007;49.252;8.904;2022-07-30T11:51:40;3.95;;;2.03;;
10637;SDS011;47007;49.252;8.904;2022-07-30T11:54:08;3.22;;;1.80;;
10637;SDS011;47007;49.252;8.904;2022-07-30T11:56:55;6.80;;;2.35;;
10637;SDS011;47007;49.252;8.904;2022-07-30T11:59:30;3.85;;;2.00;;
10637;SDS011;47007;49.252;8.904;2022-07-30T12:01:57;3.67;;;2.05;;
10637;SDS011;47007;49.252;8.904;2022-07-30T12:04:27;2.15;;;1.95;;
10637;SDS011;47007;49.252;8.904;2022-07-30T12:06:54;1.95;;;1.85;;
10637;SDS011;47007;49.252;8.904;2022-07-30T12:09:21;2.70;;;1.90;;
10637;SDS011;47007;49.252;8.904;2022-07-30T12:11:53;2.35;;;1.73;;
10637;SDS011;47007;49.252;8.904;2022-07-30T12:14:20;2.05;;;1.63;;
10637;SDS011;47007;49.252;8.904;2022-07-30T12:16:51;4.78;;;1.92;;
10637;SDS011;47007;49.252;8.904;2022-07-30T12:19:19;1.50;;;1.40;;
10637;SDS011;47007;49.252;8.904;2022-07-30T12:21:46;3.55;;;1.30;;
10637;SDS011;47007;49.252;8.904;2022-07-30T12:24:23;2.60;;;1.65;;
10637;SDS011;47007;49.252;8.904;2022-07-30T12:26:51;1.70;;;1.33;;
10637;SDS011;47007;49.252;8.904;2022-07-30T12:29:29;2.88;;;1.40;;
10637;SDS011;47007;49.252;8.904;2022-07-30T12:31:57;1.60;;;1.20;;
10637;SDS011;47007;49.252;8.904;2022-07-30T12:34:24;1.33;;;1.23;;
10637;SDS011;47007;49.252;8.904;2022-07-30T12:36:52;3.72;;;1.30;;
10637;SDS011;47007;49.252;8.904;2022-07-30T12:39:23;1.60;;;1.50;;
10637;SDS011;47007;49.252;8.904;2022-07-30T12:41:52;4.32;;;2.15;;
10637;SDS011;47007;49.252;8.904;2022-07-30T12:47:07;1.92;;;1.65;;
10637;SDS011;47007;49.252;8.904;2022-07-30T12:49:45;2.22;;;1.90;;
10637;SDS011;47007;49.252;8.904;2022-07-30T12:52:50;2.20;;;1.50;;
10637;SDS011;47007;49.252;8.904;2022-07-30T12:55:13;1.70;;;1.60;;
10637;SDS011;47007;49.252;8.904;2022-07-30T13:03:23;3.33;;;1.42;;
10637;SDS011;47007;49.252;8.904;2022-07-30T13:06:14;3.20;;;1.52;;
10637;SDS011;47007;49.252;8.904;2022-07-30T13:08:47;2.47;;;1.30;;
10637;SDS011;47007;49.252;8.904;2022-07-30T13:11:20;1.60;;;1.17;;
10637;SDS011;47007;49.252;8.904;2022-07-30T13:13:48;5.80;;;1.33;;
10637;SDS011;47007;49.252;8.904;2022-07-30T13:16:16;1.20;;;1.10;;
10637;SDS011;47007;49.252;8.904;2022-07-30T13:18:45;1.58;;;1.00;;
10637;SDS011;47007;49.252;8.904;2022-07-30T13:21:12;2.17;;;1.02;;
10637;SDS011;47007;49.252;8.904;2022-07-30T13:23:40;2.28;;;1.20;;
10637;SDS011;47007;49.252;8.904;2022-07-30T13:26:07;2.92;;;1.17;;
10637;SDS011;47007;49.252;8.904;2022-07-30T13:29:04;1.67;;;1.20;;
10637;SDS011;47007;49.252;8.904;2022-07-30T13:31:31;1.67;;;1.02;;
10637;SDS011;47007;49.252;8.904;2022-07-30T13:34:09;2.20;;;1.35;;
10637;SDS011;47007;49.252;8.904;2022-07-30T13:36:36;5.18;;;3.38;;
10637;SDS011;47007;49.252;8.904;2022-07-30T13:39:03;2.45;;;1.13;;
10637;SDS011;47007;49.252;8.904;2022-07-30T13:41:30;1.30;;;1.08;;
10637;SDS011;47007;49.252;8.904;2022-07-30T13:43:56;1.65;;;1.45;;
10637;SDS011;47007;49.252;8.904;2022-07-30T13:46:23;2.17;;;1.23;;
10637;SDS011;47007;49.252;8.904;2022-07-30T13:48:50;1.73;;;1.10;;
10637;SDS011;47007;49.252;8.904;2022-07-30T13:51:17;1.75;;;1.30;;
10637;SDS011;47007;49.252;8.904;2022-07-30T13:53:44;1.10;;;1.00;;
10637;SDS011;47007;49.252;8.904;2022-07-30T13:56:10;3.08;;;1.00;;
10637;SDS011;47007;49.252;8.904;2022-07-30T13:58:38;3.22;;;1.33;;
10637;SDS011;47007;49.252;8.904;2022-07-30T14:01:05;1.05;;;1.05;;
10637;SDS011;47007;49.252;8.904;2022-07-30T14:03:33;1.60;;;1.00;;
10637;SDS011;47007;49.252;8.904;2022-07-30T14:06:29;1.75;;;0.80;;
10637;SDS011;47007;49.252;8.904;2022-07-30T14:08:56;1.17;;;1.10;;
10637;SDS011;47007;49.252;8.904;2022-07-30T14:11:23;1.15;;;0.90;;
10637;SDS011;47007;49.252;8.904;2022-07-30T14:13:50;1.52;;;1.27;;
10637;SDS011;47007;49.252;8.904;2022-07-30T14:16:17;2.83;;;1.10;;
10637;SDS011;47007;49.252;8.904;2022-07-30T14:19:05;1.70;;;1.25;;
10637;SDS011;47007;49.252;8.904;2022-07-30T14:21:31;1.45;;;1.38;;
10637;SDS011;47007;49.252;8.904;2022-07-30T14:23:58;1.48;;;0.88;;
10637;SDS011;47007;49.252;8.904;2022-07-30T14:26:25;1.35;;;1.00;;
10637;SDS011;47007;49.252;8.904;2022-07-30T14:29:02;1.80;;;1.02;;
10637;SDS011;47007;49.252;8.904;2022-07-30T14:31:30;1.30;;;1.00;;
10637;SDS011;47007;49.252;8.904;2022-07-30T14:33:57;1.30;;;1.10;;
10637;SDS011;47007;49.252;8.904;2022-07-30T14:36:24;3.05;;;1.20;;
10637;SDS011;47007;49.252;8.904;2022-07-30T14:38:53;0.85;;;0.85;;
10637;SDS011;47007;49.252;8.904;2022-07-30T14:41:22;2.25;;;1.00;;
10637;SDS011;47007;49.252;8.904;2022-07-30T14:43:50;1.63;;;1.00;;
10637;SDS011;47007;49.252;8.904;2022-07-30T14:46:17;1.50;;;1.13;;
10637;SDS011;47007;49.252;8.904;2022-07-30T14:48:44;1.38;;;1.27;;
10637;SDS011;47007;49.252;8.904;2022-07-30T14:51:11;1.30;;;1.00;;
10637;SDS011;47007;49.252;8.904;2022-07-30T14:53:47;1.17;;;0.88;;
10637;SDS011;47007;49.252;8.904;2022-07-30T14:56:15;1.85;;;0.98;;
10637;SDS011;47007;49.252;8.904;2022-07-30T14:58:43;1.13;;;0.93;;
10637;SDS011;47007;49.252;8.904;2022-07-30T15:01:10;2.28;;;1.15;;
10637;SDS011;47007;49.252;8.904;2022-07-30T15:03:42;0.95;;;0.73;;
10637;SDS011;47007;49.252;8.904;2022-07-30T15:06:09;0.90;;;0.90;;
10637;SDS011;47007;49.252;8.904;2022-07-30T15:08:38;1.05;;;0.80;;
10637;SDS011;47007;49.252;8.904;2022-07-30T15:11:05;0.98;;;0.70;;
10637;SDS011;47007;49.252;8.904;2022-07-30T15:13:35;1.98;;;0.90;;
10637;SDS011;47007;49.252;8.904;2022-07-30T15:16:05;1.10;;;0.80;;
10637;SDS011;47007;49.252;8.904;2022-07-30T15:18:32;1.45;;;0.90;;
10637;SDS011;47007;49.252;8.904;2022-07-30T15:20:59;0.82;;;0.82;;
10637;SDS011;47007;49.252;8.904;2022-07-30T15:23:31;1.75;;;0.80;;
10637;SDS011;47007;49.252;8.904;2022-07-30T15:25:58;2.03;;;0.90;;
10637;SDS011;47007;49.252;8.904;2022-07-30T15:28:24;1.55;;;1.13;;
10637;SDS011;47007;49.252;8.904;2022-07-30T15:30:51;1.80;;;0.77;;
10637;SDS011;47007;49.252;8.904;2022-07-30T15:33:18;2.72;;;1.00;;
10637;SDS011;47007;49.252;8.904;2022-07-30T15:35:45;2.58;;;0.93;;
10637;SDS011;47007;49.252;8.904;2022-07-30T15:38:11;2.08;;;0.85;;
10637;SDS011;47007;49.252;8.904;2022-07-30T15:40:39;2.83;;;0.82;;
10637;SDS011;47007;49.252;8.904;2022-07-30T15:43:07;1.10;;;0.82;;
10637;SDS011;47007;49.252;8.904;2022-07-30T15:45:35;1.38;;;0.95;;
10637;SDS011;47007;49.252;8.904;2022-07-30T15:48:21;2.35;;;1.10;;
10637;SDS011;47007;49.252;8.904;2022-07-30T15:50:58;2.80;;;0.80;;
10637;SDS011;47007;49.252;8.904;2022-07-30T15:53:27;1.50;;;0.90;;
10637;SDS011;47007;49.252;8.904;2022-07-30T15:55:56;2.70;;;0.90;;
10637;SDS011;47007;49.252;8.904;2022-07-30T15:58:23;0.80;;;0.75;;
10637;SDS011;47007;49.252;8.904;2022-07-30T16:00:49;2.75;;;0.82;;
10637;SDS011;47007;49.252;8.904;2022-07-30T16:03:17;1.02;;;0.75;;
10637;SDS011;47007;49.252;8.904;2022-07-30T16:05:43;2.38;;;0.90;;
10637;SDS011;47007;49.252;8.904;2022-07-30T16:08:18;2.60;;;1.20;;
10637;SDS011;47007;49.252;8.904;2022-07-30T16:10:45;1.77;;;1.00;;